createdAt,value
2022-11-22T00:04:53.017Z,21.95
2022-11-22T00:09:53.767Z,15.77
2022-11-22T00:14:56.953Z,14.27
2022-11-22T00:19:58.253Z,14.93
2022-11-22T00:24:59.373Z,13.75
2022-11-22T00:30:00.266Z,14.90
2022-11-22T00:35:01.144Z,11.93
2022-11-22T00:40:02.545Z,12.20
2022-11-22T00:45:04.218Z,12.00
2022-11-22T00:50:05.820Z,12.15
2022-11-22T00:55:07.236Z,13.23
2022-11-22T01:00:09.238Z,10.52
2022-11-22T01:05:09.998Z,11.52
2022-11-22T01:10:11.183Z,11.43
2022-11-22T01:15:11.948Z,10.95
2022-11-22T01:20:15.629Z,10.15
2022-11-22T01:25:16.463Z,12.50
2022-11-22T01:30:17.429Z,10.60
2022-11-22T01:35:18.144Z,9.70
2022-11-22T01:40:19.408Z,9.80
2022-11-22T01:45:51.459Z,11.00
2022-11-22T01:50:57.538Z,9.63
2022-11-22T01:56:01.476Z,9.68
2022-11-22T02:01:03.164Z,10.68
2022-11-22T02:06:04.965Z,9.50
2022-11-22T02:11:07.554Z,10.70
2022-11-22T02:16:10.364Z,11.52
2022-11-22T02:21:11.160Z,13.00
2022-11-22T02:26:13.190Z,11.32
2022-11-22T02:31:39.868Z,8.88
2022-11-22T02:36:50.635Z,5.75
2022-11-22T02:41:52.984Z,5.68
2022-11-22T02:46:54.720Z,6.57
2022-11-22T02:51:55.438Z,6.07
2022-11-22T02:56:57.239Z,6.37
2022-11-22T03:02:02.980Z,5.57
2022-11-22T03:07:04.887Z,4.53
2022-11-22T03:12:05.877Z,5.47
2022-11-22T03:17:06.644Z,4.90
2022-11-22T03:22:07.382Z,4.78
2022-11-22T03:27:08.131Z,3.95
2022-11-22T03:32:08.909Z,3.10
2022-11-22T03:37:09.949Z,2.55
2022-11-22T03:42:14.522Z,2.53
2022-11-22T03:47:17.698Z,2.40
2022-11-22T03:52:18.416Z,2.95
2022-11-22T03:57:19.170Z,2.47
2022-11-22T04:02:20.133Z,1.90
2022-11-22T04:07:21.079Z,2.62
2022-11-22T04:12:21.834Z,1.90
2022-11-22T04:17:40.868Z,2.40
2022-11-22T04:22:41.645Z,3.10
2022-11-22T04:27:42.403Z,2.00
2022-11-22T04:32:45.945Z,2.85
2022-11-22T04:37:50.953Z,2.78
2022-11-22T04:43:10.655Z,3.22
2022-11-22T04:48:11.707Z,2.00
2022-11-22T04:53:13.759Z,2.58
2022-11-22T04:58:15.240Z,2.55
2022-11-22T05:03:16.180Z,2.10
2022-11-22T05:08:16.916Z,2.70
2022-11-22T05:13:19.084Z,2.28
2022-11-22T05:18:21.565Z,1.95
2022-11-22T05:23:41.996Z,2.00
2022-11-22T05:28:42.790Z,2.40
2022-11-22T05:33:45.450Z,2.10
2022-11-22T05:38:46.236Z,2.95
2022-11-22T05:43:47.215Z,2.20
2022-11-22T05:48:48.043Z,2.92
2022-11-22T05:53:48.900Z,2.60
2022-11-22T05:58:50.879Z,2.90
2022-11-22T06:03:53.198Z,2.12
2022-11-22T06:08:53.904Z,2.80
2022-11-22T06:13:57.309Z,2.55
2022-11-22T06:18:58.021Z,3.35
2022-11-22T06:23:58.943Z,2.67
2022-11-22T06:28:59.971Z,2.35
2022-11-22T06:34:01.197Z,2.17
2022-11-22T06:39:02.832Z,2.30
2022-11-22T06:44:06.650Z,2.15
2022-11-22T06:49:07.349Z,2.00
2022-11-22T06:54:11.349Z,2.10
2022-11-22T06:59:12.294Z,1.70
2022-11-22T07:04:13.153Z,2.42
2022-11-22T07:09:13.867Z,2.37
2022-11-22T07:14:14.638Z,1.85
2022-11-22T07:19:15.380Z,2.03
2022-11-22T07:24:17.068Z,2.95
2022-11-22T07:29:18.193Z,2.03
2022-11-22T07:34:19.030Z,1.83
2022-11-22T07:39:19.733Z,2.10
2022-11-22T07:44:22.289Z,1.80
2022-11-22T07:49:22.993Z,1.37
2022-11-22T07:54:24.627Z,1.62
2022-11-22T07:59:25.398Z,1.40
2022-11-22T08:04:26.239Z,3.55
2022-11-22T08:09:26.955Z,2.30
2022-11-22T08:14:27.933Z,1.15
2022-11-22T08:19:30.288Z,1.50
2022-11-22T08:24:32.101Z,1.67
2022-11-22T08:29:32.993Z,2.25
2022-11-22T08:34:34.522Z,1.65
2022-11-22T08:39:35.308Z,1.70
2022-11-22T08:44:36.076Z,2.22
2022-11-22T08:49:36.862Z,2.05
2022-11-22T08:54:38.375Z,1.92
2022-11-22T08:59:39.503Z,2.28
2022-11-22T09:04:40.400Z,2.30
2022-11-22T09:09:41.171Z,2.00
2022-11-22T09:14:41.903Z,1.67
2022-11-22T09:19:43.418Z,4.10
2022-11-22T09:24:44.158Z,1.95
2022-11-22T09:29:44.932Z,1.90
2022-11-22T09:34:45.793Z,2.12
2022-11-22T09:39:48.479Z,5.28
2022-11-22T09:45:18.050Z,2.72
2022-11-22T09:51:59.457Z,2.67
2022-11-22T09:57:03.955Z,2.60
2022-11-22T10:02:19.122Z,2.95
2022-11-22T10:08:44.514Z,3.20
2022-11-22T10:13:53.119Z,3.30
2022-11-22T10:19:02.300Z,3.05
2022-11-22T10:24:03.952Z,4.22
2022-11-22T10:30:05.957Z,3.12
2022-11-22T10:39:10.671Z,3.05
2022-11-22T10:44:27.978Z,2.28
2022-11-22T10:49:56.929Z,2.25
2022-11-22T10:58:54.847Z,1.73
2022-11-22T11:03:59.723Z,1.60
2022-11-22T11:14:55.202Z,1.27
2022-11-22T11:20:00.032Z,1.33
2022-11-22T11:25:34.371Z,1.50
2022-11-22T11:31:18.333Z,1.37
2022-11-22T11:36:23.832Z,1.50
2022-11-22T11:41:31.184Z,1.20
2022-11-22T11:46:45.384Z,3.33
2022-11-22T11:51:48.882Z,1.75
2022-11-22T11:57:02.783Z,2.00
2022-11-22T12:02:24.608Z,1.30
2022-11-22T12:07:40.289Z,2.00
2022-11-22T12:14:19.663Z,1.70
2022-11-22T12:19:44.352Z,1.90
2022-11-22T12:25:31.623Z,1.23
2022-11-22T12:30:34.320Z,1.30
2022-11-22T12:35:43.027Z,1.73
2022-11-22T12:40:49.305Z,1.58
2022-11-22T12:46:03.941Z,2.03
2022-11-22T12:52:31.359Z,2.50
2022-11-22T12:57:48.560Z,1.23
2022-11-22T13:03:03.668Z,1.40
2022-11-22T13:08:18.210Z,1.70
2022-11-22T13:13:27.201Z,1.55
2022-11-22T13:18:32.850Z,1.50
2022-11-22T13:24:02.281Z,1.67
2022-11-22T13:29:18.054Z,1.48
2022-11-22T13:34:25.808Z,0.90
2022-11-22T13:39:26.590Z,1.40
2022-11-22T13:44:35.729Z,1.40
2022-11-22T13:49:48.546Z,1.80
2022-11-22T13:55:02.269Z,1.58
2022-11-22T14:01:03.590Z,1.52
2022-11-22T14:06:28.103Z,3.08
2022-11-22T14:11:44.877Z,1.27
2022-11-22T14:17:01.981Z,1.00
2022-11-22T14:22:17.418Z,1.70
2022-11-22T14:27:43.037Z,1.35
2022-11-22T14:33:14.518Z,1.10
2022-11-22T14:38:48.804Z,1.17
2022-11-22T14:43:52.747Z,1.77
2022-11-22T14:49:08.227Z,1.50
2022-11-22T14:54:22.314Z,0.77
2022-11-22T15:00:27.445Z,0.62
2022-11-22T15:09:45.123Z,0.55
2022-11-22T16:02:21.010Z,0.57
2022-11-22T16:07:36.269Z,0.85
2022-11-22T16:12:37.956Z,1.10
2022-11-22T16:17:49.484Z,1.30
2022-11-22T16:29:39.739Z,1.55
2022-11-22T16:34:42.516Z,0.90
2022-11-22T16:39:43.299Z,0.45
2022-11-22T16:44:44.602Z,0.98
2022-11-22T16:49:46.797Z,1.10
2022-11-22T16:54:47.573Z,0.73
2022-11-22T16:59:48.320Z,0.70
2022-11-22T17:04:49.282Z,2.35
2022-11-22T17:09:52.298Z,1.90
2022-11-22T17:14:53.374Z,1.05
2022-11-22T17:19:54.253Z,1.20
2022-11-22T17:24:55.031Z,1.95
2022-11-22T17:29:55.805Z,1.12
2022-11-22T17:34:56.625Z,1.20
2022-11-22T17:39:57.389Z,1.75
2022-11-22T17:44:58.101Z,1.20
2022-11-22T17:49:58.873Z,1.37
2022-11-22T17:55:04.874Z,1.40
2022-11-22T18:00:07.992Z,1.40
2022-11-22T18:05:09.002Z,1.37
2022-11-22T18:10:09.805Z,1.80
2022-11-22T18:15:10.565Z,1.58
2022-11-22T18:20:11.441Z,1.87
2022-11-22T18:25:12.163Z,1.77
2022-11-22T18:30:14.643Z,2.30
2022-11-22T18:35:16.595Z,2.00
2022-11-22T18:40:17.798Z,2.30
2022-11-22T18:45:18.558Z,1.80
2022-11-22T18:50:19.343Z,3.03
2022-11-22T18:55:20.079Z,2.58
2022-11-22T19:00:21.326Z,2.60
2022-11-22T19:05:24.546Z,4.05
2022-11-22T19:10:25.690Z,4.87
2022-11-22T19:15:26.488Z,3.85
2022-11-22T19:20:55.824Z,4.90
2022-11-22T19:25:57.008Z,3.70
2022-11-22T19:31:07.223Z,2.80
2022-11-22T19:36:16.556Z,2.85
2022-11-22T19:41:20.037Z,3.30
2022-11-22T19:46:21.239Z,3.12
2022-11-22T19:51:23.057Z,3.50
2022-11-22T19:56:26.312Z,3.78
2022-11-22T20:06:30.145Z,4.57
2022-11-22T20:11:31.046Z,4.97
2022-11-22T20:16:31.956Z,5.10
2022-11-22T20:21:34.447Z,5.62
2022-11-22T20:26:35.464Z,4.33
2022-11-22T20:31:37.828Z,5.45
2022-11-22T20:36:39.005Z,5.90
2022-11-22T20:41:40.144Z,8.93
2022-11-22T20:46:42.278Z,3.72
2022-11-22T20:51:43.095Z,4.35
2022-11-22T20:56:43.951Z,5.25
2022-11-22T21:01:46.256Z,10.32
2022-11-22T21:06:47.493Z,13.03
2022-11-22T21:11:48.245Z,4.85
2022-11-22T21:16:49.959Z,4.55
2022-11-22T21:21:50.996Z,5.20
2022-11-22T21:26:51.770Z,4.20
2022-11-22T21:31:52.733Z,4.78
2022-11-22T21:36:53.562Z,3.83
2022-11-22T21:41:54.327Z,3.92
2022-11-22T21:46:55.072Z,4.03
2022-11-22T21:51:56.236Z,4.20
2022-11-22T21:57:02.459Z,3.78
2022-11-22T22:02:03.761Z,4.30
2022-11-22T22:07:04.682Z,4.03
2022-11-22T22:12:05.586Z,3.90
2022-11-22T22:17:06.355Z,3.90
2022-11-22T22:22:07.464Z,4.05
2022-11-22T22:27:08.336Z,4.53
2022-11-22T22:32:10.707Z,3.60
2022-11-22T22:37:11.977Z,3.25
2022-11-22T22:42:13.433Z,3.85
2022-11-22T22:47:14.201Z,3.53
2022-11-22T22:52:14.942Z,3.30
2022-11-22T22:57:15.691Z,3.50
2022-11-22T23:02:16.419Z,2.92
2022-11-22T23:07:17.280Z,4.62
2022-11-22T23:12:18.031Z,4.90
2022-11-22T23:17:18.968Z,3.30
2022-11-22T23:22:24.642Z,2.72
2022-11-22T23:27:26.900Z,3.22
2022-11-22T23:32:30.944Z,3.50
2022-11-22T23:37:31.817Z,3.58
2022-11-22T23:42:32.605Z,2.92
2022-11-22T23:47:33.444Z,3.00
2022-11-22T23:52:34.252Z,2.90
2022-11-22T23:57:35.006Z,3.17
